Home > Products > Valid Products > TAF

000
FTUS43 KGRR 251900 AAA
TAFMKG
TAF AMD
KMKG 251904Z 2519/2618 21011KT P6SM BKN150
     FM252200 22008KT P6SM VCSH BKN070 OVC150
     FM260600 19012KT 5SM -SHRA BR BKN035 OVC070
     FM261000 20009KT P6SM OVC035
     FM261400 22011KT P6SM OVC015=



000
FTUS43 KGRR 251700
TAFBTL
TAF
KBTL 251740Z 2518/2618 22009KT P6SM BKN150
     FM260300 18005KT P6SM VCSH BKN070 OVC150
     FM261100 19012KT 5SM -SHRA BR BKN050 OVC080
     FM261500 22010KT P6SM OVC015=



000
FTUS43 KGRR 251700
TAFAZO
TAF
KAZO 251740Z 2518/2618 21009KT P6SM BKN150
     FM260300 18005KT P6SM VCSH BKN070 OVC150
     FM261000 19012KT 5SM -SHRA BR BKN050 OVC080
     FM261500 22010KT P6SM OVC015=



000
FTUS43 KGRR 251700
TAFMKG
TAF
KMKG 251740Z 2518/2618 21011KT P6SM BKN150
     FM260200 22008KT P6SM VCTS BKN070CB OVC150
     FM260600 19012KT 5SM -SHRA BR BKN035 OVC070
     FM261000 20009KT P6SM OVC035
     FM261400 22011KT P6SM OVC015=



000
FTUS43 KGRR 251700
TAFLAN
TAF
KLAN 251740Z 2518/2618 22009KT P6SM BKN150
     FM260600 18005KT P6SM VCSH BKN070 OVC150
     FM261500 22010KT P6SM OVC015=



000
FTUS43 KGRR 251700
TAFGRR
TAF
KGRR 251740Z 2518/2618 21009KT P6SM BKN150
     FM260300 18005KT P6SM VCSH BKN070 OVC150
     FM260800 19012KT 5SM -SHRA BR BKN050 OVC080
     FM261500 22011KT P6SM OVC015=



000
FTUS43 KGRR 251700
TAFJXN
TAF
KJXN 251740Z 2518/2618 22009KT P6SM BKN150
     FM260600 18005KT P6SM VCSH BKN070 OVC150
     FM261500 22010KT P6SM OVC015=



000
FTUS43 KGRR 251100
TAFLAN
TAF
KLAN 251133Z 2512/2612 15004KT P6SM SCT080 BKN150
     FM251600 22009KT P6SM BKN150=



000
FTUS43 KGRR 251100
TAFMKG
TAF
KMKG 251133Z 2512/2612 16003KT P6SM BKN160
     FM251500 21011KT P6SM BKN150
     FM260200 22008KT P6SM VCTS BKN070CB OVC150
     FM260600 19012KT 5SM -SHRA BR VCTS BKN035CB OVC070
     FM261000 20009KT P6SM OVC035=



000
FTUS43 KGRR 251100
TAFAZO
TAF
KAZO 251133Z 2512/2612 18005KT P6SM SCT080 BKN150
     FM251600 21009KT P6SM BKN150
     FM260300 18005KT P6SM VCTS BKN070CB OVC150
     FM261000 19012KT 5SM -SHRA BR VCTS BKN050CB OVC080=



000
FTUS43 KGRR 251100
TAFBTL
TAF
KBTL 251133Z 2512/2612 18005KT P6SM SCT080 BKN150
     FM251600 21009KT P6SM BKN150
     FM260300 18005KT P6SM VCTS BKN070CB OVC150
     FM261100 19012KT 5SM -SHRA BR VCTS BKN050CB OVC080=



000
FTUS43 KGRR 251100
TAFGRR
TAF
KGRR 251133Z 2512/2612 18005KT P6SM FEW080 BKN150
     FM251600 21009KT P6SM BKN150
     FM260300 18005KT P6SM VCTS BKN070CB OVC150
     FM260800 19012KT 5SM -SHRA BR VCTS BKN050CB OVC080=



000
FTUS43 KGRR 251100
TAFJXN
TAF
KJXN 251133Z 2512/2612 00000KT P6SM SCT080 BKN150
     FM251600 22009KT P6SM BKN150=



000
FTUS43 KGRR 250500
TAFLAN
TAF
KLAN 250540Z 2506/2606 VRB03KT P6SM SKC
     FM251600 22009KT P6SM BKN150=



000
FTUS43 KGRR 250500
TAFMKG
TAF
KMKG 250540Z 2506/2606 VRB03KT P6SM SCT250
     FM251500 21011KT P6SM BKN150
     FM260200 22005KT P6SM -SHRA BKN070=



000
FTUS43 KGRR 250500
TAFAZO
TAF
KAZO 250540Z 2506/2606 VRB03KT P6SM SKC
     FM251600 21009KT P6SM BKN150
     FM260400 22005KT P6SM -SHRA BKN070=



000
FTUS43 KGRR 250500
TAFBTL
TAF
KBTL 250540Z 2506/2606 VRB03KT P6SM SKC
     FM251600 21009KT P6SM BKN150
     FM260400 22005KT P6SM -SHRA BKN070=



000
FTUS43 KGRR 250500
TAFGRR
TAF
KGRR 250540Z 2506/2606 VRB03KT P6SM SKC
     FM251600 21009KT P6SM BKN150
     FM260300 18005KT P6SM -SHRA BKN070=



000
FTUS43 KGRR 250500
TAFJXN
TAF
KJXN 250540Z 2506/2606 VRB03KT P6SM SKC
     FM251600 22009KT P6SM BKN150=



000
FTUS43 KGRR 242300
TAFAZO
TAF
KAZO 242340Z 2500/2524 VRB03KT P6SM SKC
     FM251600 21009KT P6SM SCT050=



000
FTUS43 KGRR 242300
TAFMKG
TAF
KMKG 242340Z 2500/2524 VRB03KT P6SM SCT250
     FM251500 21011KT P6SM SCT050=



000
FTUS43 KGRR 242300
TAFJXN
TAF
KJXN 242340Z 2500/2524 VRB03KT P6SM SKC
     FM251600 22009KT P6SM SCT050=



000
FTUS43 KGRR 242300
TAFBTL
TAF
KBTL 242340Z 2500/2524 VRB03KT P6SM SKC
     FM251600 21009KT P6SM SCT050=



000
FTUS43 KGRR 242300
TAFLAN
TAF
KLAN 242340Z 2500/2524 VRB03KT P6SM SKC
     FM251600 22009KT P6SM SCT050=



000
FTUS43 KGRR 242300
TAFGRR
TAF
KGRR 242340Z 2500/2524 VRB03KT P6SM SKC
     FM251600 21009KT P6SM SCT050=



000
FTUS43 KGRR 241700
TAFBTL
TAF
KBTL 241740Z 2418/2518 01006KT P6SM SCT050
     FM251500 21009KT P6SM SCT050=



000
FTUS43 KGRR 241700
TAFGRR
TAF
KGRR 241740Z 2418/2518 36006KT P6SM SCT050
     FM251500 21009KT P6SM SCT050=



000
FTUS43 KGRR 241700
TAFJXN
TAF
KJXN 241740Z 2418/2518 02006KT P6SM BKN050
     FM251500 22009KT P6SM SCT050=



000
FTUS43 KGRR 241700
TAFMKG
TAF
KMKG 241740Z 2418/2518 30008KT P6SM SCT050
     FM250200 VRB03KT P6SM SCT250
     FM251500 21011KT P6SM SCT050=



000
FTUS43 KGRR 241700
TAFLAN
TAF
KLAN 241740Z 2418/2518 02006KT P6SM BKN050
     FM251500 22009KT P6SM SCT050=



000
FTUS43 KGRR 241700
TAFAZO
TAF
KAZO 241740Z 2418/2518 01006KT P6SM SCT050
     FM251500 21009KT P6SM SCT050=



000
FTUS43 KGRR 241100
TAFMKG
TAF
KMKG 241135Z 2412/2512 01006KT P6SM SKC
     FM241600 32008KT P6SM FEW060
     FM250200 00000KT P6SM SKC=



000
FTUS43 KGRR 241100
TAFGRR
TAF
KGRR 241135Z 2412/2512 02006KT P6SM FEW050
     FM242000 30006KT P6SM SCT070
     FM250400 VRB03KT P6SM SKC=



000
FTUS43 KGRR 241100
TAFLAN
TAF
KLAN 241135Z 2412/2512 36006KT P6SM SCT070
     FM250200 00000KT P6SM FEW250=



000
FTUS43 KGRR 241100
TAFBTL
TAF
KBTL 241135Z 2412/2512 02006KT P6SM SCT060
     FM242200 30006KT P6SM SCT070
     FM250400 VRB03KT P6SM SKC=



000
FTUS43 KGRR 241100
TAFAZO
TAF
KAZO 241135Z 2412/2512 02005KT P6SM SCT060
     FM242100 30006KT P6SM SCT070
     FM250400 VRB03KT P6SM SKC=



000
FTUS43 KGRR 241100
TAFJXN
TAF
KJXN 241135Z 2412/2512 34006KT P6SM SCT070
     FM250200 00000KT P6SM FEW250=



000
FTUS43 KGRR 240500
TAFGRR
TAF
KGRR 240540Z 2406/2506 36006KT P6SM FEW040=



000
FTUS43 KGRR 240500
TAFJXN
TAF
KJXN 240540Z 2406/2506 01006KT P6SM FEW040=



000
FTUS43 KGRR 240500
TAFAZO
TAF
KAZO 240540Z 2406/2506 36006KT P6SM FEW040=



000
FTUS43 KGRR 240500
TAFMKG
TAF
KMKG 240540Z 2406/2506 01007KT P6SM SCT040=



000
FTUS43 KGRR 240500
TAFLAN
TAF
KLAN 240540Z 2406/2506 01006KT P6SM FEW040=



000
FTUS43 KGRR 240500
TAFBTL
TAF
KBTL 240540Z 2406/2506 01006KT P6SM FEW040=



000
FTUS43 KGRR 232300
TAFBTL
TAF
KBTL 232340Z 2400/2424 01006KT P6SM FEW040=



000
FTUS43 KGRR 232300
TAFAZO
TAF
KAZO 232340Z 2400/2424 36006KT P6SM FEW040=



000
FTUS43 KGRR 232300
TAFMKG
TAF
KMKG 232340Z 2400/2424 01007KT P6SM SCT040=



000
FTUS43 KGRR 232300
TAFLAN
TAF
KLAN 232340Z 2400/2424 01006KT P6SM FEW040=



000
FTUS43 KGRR 232300
TAFGRR
TAF
KGRR 232340Z 2400/2424 36006KT P6SM FEW040=



000
FTUS43 KGRR 232300
TAFJXN
TAF
KJXN 232340Z 2400/2424 01006KT P6SM FEW040=



000
FTUS43 KGRR 232100 AAA
TAFGRR
TAF AMD
KGRR 232137Z 2322/2418 33010KT P6SM BKN035
     FM240100 02007KT P6SM SCT040
     FM241500 36006KT P6SM FEW040=



000
FTUS43 KGRR 232100 AAA
TAFMKG
TAF AMD
KMKG 232136Z 2322/2418 29010KT P6SM SCT035
     FM240100 01008KT P6SM SCT040
     FM241500 36007KT P6SM FEW040=



000
FTUS43 KGRR 231700 RRA
TAFJXN
TAF
KJXN 231741Z 2318/2418 36010G18KT P6SM BKN035
      TEMPO 2318/2319 BKN025
     FM240100 02007KT P6SM SCT040
     FM241500 01006KT P6SM FEW040=



000
FTUS43 KGRR 231700 RRA
TAFGRR
TAF
KGRR 231741Z 2318/2418 01010G18KT P6SM BKN035
     FM240100 02007KT P6SM SCT040
     FM241500 36006KT P6SM FEW040=



000
FTUS43 KGRR 231700 RRA
TAFAZO
TAF
KAZO 231741Z 2318/2418 36010G18KT P6SM BKN035
     FM240100 02007KT P6SM SCT040
     FM241500 36006KT P6SM FEW040=



000
FTUS43 KGRR 231700 RRA
TAFBTL
TAF
KBTL 231741Z 2318/2418 36010G18KT P6SM BKN035
     FM240100 02007KT P6SM SCT040
     FM241500 01006KT P6SM FEW040=



000
FTUS43 KGRR 231700 RRA
TAFMKG
TAF
KMKG 231741Z 2318/2418 01010G20KT P6SM BKN035
     FM240100 01008KT P6SM SCT040
     FM241500 36007KT P6SM FEW040=



000
FTUS43 KGRR 231700 RRA
TAFLAN
TAF
KLAN 231741Z 2318/2418 36010G18KT P6SM BKN035
     FM240000 02007KT P6SM SCT040
     FM241500 01006KT P6SM FEW040=



000
FTUS43 KGRR 231500 AAA
TAFGRR
TAF AMD
KGRR 231512Z 2315/2412 01010KT P6SM BKN030
     FM231700 35012G20KT P6SM BKN040
     FM240000 36005KT P6SM SKC=



000
FTUS43 KGRR 231400 AAA
TAFLAN
TAF AMD
KLAN 231420Z 2314/2412 36011KT P6SM SCT025
     FM231600 35012G20KT P6SM BKN035
     FM240000 01006KT P6SM SKC=



000
FTUS43 KGRR 231400 AAA
TAFMKG
TAF AMD
KMKG 231418Z 2314/2412 02012KT P6SM SCT020
      TEMPO 2315/2316 BKN020
     FM231600 36011G22KT P6SM SCT035
     FM240000 01004KT P6SM SKC=



000
FTUS43 KGRR 231100
TAFJXN
TAF
KJXN 231130Z 2312/2412 01007KT P6SM OVC012
     FM231700 35010KT P6SM BKN040
     FM240000 01006KT P6SM SKC=



000
FTUS43 KGRR 231100
TAFMKG
TAF
KMKG 231130Z 2312/2412 01012KT P6SM FEW012 SCT180
     FM231300 36012KT P6SM BKN015
     FM231600 35014G24KT P6SM SCT040
     FM240000 01004KT P6SM SKC=



000
FTUS43 KGRR 231100
TAFGRR
TAF
KGRR 231130Z 2312/2412 01010KT P6SM BKN020
      TEMPO 2312/2315 SCT020
     FM231500 35012G20KT P6SM BKN040
     FM240000 36005KT P6SM SKC=



000
FTUS43 KGRR 231100
TAFBTL
TAF
KBTL 231130Z 2312/2412 36010KT P6SM FEW013 OVC050
     FM231300 35010KT P6SM BKN015
     FM231600 35012KT P6SM BKN040
     FM240000 01006KT P6SM SKC=



000
FTUS43 KGRR 231100
TAFLAN
TAF
KLAN 231130Z 2312/2412 02009KT P6SM OVC015
     FM231600 35012G20KT P6SM BKN040
     FM240000 01006KT P6SM SKC=



000
FTUS43 KGRR 231100
TAFAZO
TAF
KAZO 231130Z 2312/2412 36010KT P6SM OVC008
     FM231300 36011KT P6SM BKN015
     FM231600 35012KT P6SM BKN040
     FM240000 01006KT P6SM SKC=



000
FTUS43 KGRR 230900 AAE
TAFJXN
TAF AMD
KJXN 230941Z 2310/2406 VRB04KT P6SM OVC014
     FM231100 33010KT P6SM OVC012
     FM231700 35010KT P6SM BKN040
     FM240000 01004KT P6SM FEW040=



000
FTUS43 KGRR 230900 AAB
TAFLAN
TAF AMD
KLAN 230940Z 2310/2406 35008KT P6SM BKN016 OVC050
     FM231600 35010KT P6SM BKN040
     FM240000 01004KT P6SM FEW040=



000
FTUS43 KGRR 230900 AAF
TAFGRR
TAF AMD
KGRR 230939Z 2310/2406 35011KT P6SM SCT014
     FM231500 35012KT P6SM BKN040
     FM240000 01004KT P6SM FEW040=



000
FTUS43 KGRR 230900 AAD
TAFBTL
TAF AMD
KBTL 230939Z 2310/2406 34006KT P6SM BKN012 OVC016
     FM231000 34008KT P6SM OVC008
     FM231400 35010KT P6SM BKN015
     FM231600 35010KT P6SM BKN040
     FM240000 01004KT P6SM FEW040=



000
FTUS43 KGRR 230900 AAC
TAFAZO
TAF AMD
KAZO 230938Z 2310/2406 31009KT P6SM BKN008 OVC015
     FM231300 36011KT P6SM BKN015
     FM231600 35010KT P6SM BKN040
     FM240000 01004KT P6SM FEW040=



000
FTUS43 KGRR 230800 AAA
TAFLAN
TAF AMD
KLAN 230845Z 2309/2406 34011G17KT P6SM SCT013
     FM231000 35010KT P6SM BKN015
     FM231600 35010KT P6SM BKN040
     FM240000 01004KT P6SM FEW040=



000
FTUS43 KGRR 230800 AAC
TAFBTL
TAF AMD
KBTL 230845Z 2309/2406 29009KT P6SM FEW035
     FM231000 32008KT P6SM OVC015
     FM231400 35010KT P6SM BKN015
     FM231600 35010KT P6SM BKN040
     FM240000 01004KT P6SM FEW040=



000
FTUS43 KGRR 230800 AAD
TAFJXN
TAF AMD
KJXN 230845Z 2309/2406 35005KT P6SM OVC021
     FM231000 35013KT P6SM OVC006
     FM231200 35010KT 4SM BR BKN015
     FM231700 35010KT P6SM BKN040
     FM240000 01004KT P6SM FEW040=



000
FTUS43 KGRR 230800 AAB
TAFAZO
TAF AMD
KAZO 230844Z 2309/2406 27009KT P6SM BKN021
     FM231000 35010KT P6SM BKN015
     FM231600 35010KT P6SM BKN040
     FM240000 01004KT P6SM FEW040=



000
FTUS43 KGRR 230800 AAA
TAFMKG
TAF AMD
KMKG 230843Z 2309/2406 36008KT P6SM SKC
     FM231400 35012G20KT P6SM SCT040
     FM240000 01004KT P6SM SKC=



000
FTUS43 KGRR 230800 AAE
TAFGRR
TAF AMD
KGRR 230843Z 2309/2406 35009KT P6SM BKN014
     FM231500 35012KT P6SM BKN040
     FM240000 01004KT P6SM FEW040=



000
FTUS43 KGRR 230700 AAD
TAFGRR
TAF AMD
KGRR 230726Z 2307/2406 31006KT P6SM OVC016
     FM230800 32008KT P6SM SCT015
      TEMPO 2308/2310 BKN015
     FM231000 36010KT P6SM BKN015
     FM231500 35012KT P6SM BKN040
     FM240000 01004KT P6SM FEW040=



000
FTUS43 KGRR 230700 AAC
TAFJXN
TAF AMD
KJXN 230724Z 2307/2406 28005KT P6SM BKN150
      TEMPO 2307/2309 5SM -TSRA BKN015CB OVC050
     FM230900 31008KT P6SM BKN027
     FM231000 35013KT P6SM OVC006
     FM231200 35010KT 4SM BR BKN015
     FM231700 35010KT P6SM BKN040
     FM240000 01004KT P6SM FEW040=



000
FTUS43 KGRR 230600 AAA
TAFAZO
TAF AMD
KAZO 230649Z 2307/2406 VRB03KT P6SM -TSRA FEW050CB BKN120
     FM230800 30008KT P6SM BKN025 OVC050
     FM230900 36012KT 4SM BR OVC009
     FM231300 35010KT 4SM BR BKN015
     FM231600 35010KT P6SM BKN040
     FM240000 01004KT P6SM FEW040=



000
FTUS43 KGRR 230600 AAB
TAFJXN
TAF AMD
KJXN 230648Z 2307/2406 28005KT P6SM BKN150
      TEMPO 2307/2309 5SM -SHRA BKN015
     FM230900 31008KT P6SM BKN027
     FM231000 35013KT P6SM OVC006
     FM231200 35010KT 4SM BR BKN015
     FM231700 35010KT P6SM BKN040
     FM240000 01004KT P6SM FEW040=



000
FTUS43 KGRR 230600 AAB
TAFBTL
TAF AMD
KBTL 230648Z 2307/2406 26005KT P6SM -RA BKN120
      TEMPO 2307/2308 BKN025
     FM230800 35011KT P6SM OVC011
     FM231300 35010KT 4SM BR BKN015
     FM231600 35010KT P6SM BKN040
     FM240000 01004KT P6SM FEW040=



000
FTUS43 KGRR 230600 AAC
TAFGRR
TAF AMD
KGRR 230632Z 2307/2406 30007KT P6SM BKN018
     FM230700 32008KT P6SM SCT015 BKN035
     FM230800 36010KT P6SM BKN015
     FM231500 35012KT P6SM BKN040
     FM240000 01004KT P6SM FEW040=



000
FTUS43 KGRR 230600 AAA
TAFBTL
TAF AMD
KBTL 230622Z 2306/2406 34012G17KT P6SM -RA FEW027 FEW090 BKN110
      TEMPO 2306/2308 BKN025
     FM230800 35011KT P6SM OVC011
     FM231300 35010KT 4SM BR BKN015
     FM231600 35010KT P6SM BKN040
     FM240000 01004KT P6SM FEW040=



000
FTUS43 KGRR 230600 AAA
TAFJXN
TAF AMD
KJXN 230621Z 2306/2406 28005KT P6SM BKN150
     FM230800 31008KT P6SM BKN027
     FM231000 35013KT P6SM OVC006
     FM231200 35010KT 4SM BR BKN015
     FM231700 35010KT P6SM BKN040
     FM240000 01004KT P6SM FEW040=



000
FTUS43 KGRR 230600 AAB
TAFGRR
TAF AMD
KGRR 230616Z 2306/2406 29007KT P6SM SCT025 BKN035
     FM230800 36010KT 4SM BR BKN015
     FM231500 35012KT P6SM BKN040
     FM240000 01004KT P6SM FEW040=



000
FTUS43 KGRR 230500 AAA
TAFGRR
TAF AMD
KGRR 230542Z 2306/2406 28007KT P6SM BKN026 OVC030
     FM230700 36010KT 4SM BR BKN015
     FM231500 35012KT P6SM BKN040
     FM240000 01004KT P6SM FEW040=



000
FTUS43 KGRR 230500
TAFBTL
TAF
KBTL 230525Z 2306/2406 27016G21KT P6SM FEW080 BKN120
     FM230800 35011KT P6SM OVC011
     FM231300 35010KT 4SM BR BKN015
     FM231600 35010KT P6SM BKN040
     FM240000 01004KT P6SM FEW040=



000
FTUS43 KGRR 230500
TAFLAN
TAF
KLAN 230525Z 2306/2406 28010KT P6SM SCT026 OVC150
     FM230800 36014KT P6SM OVC008
     FM231000 35010KT 4SM BR BKN015
     FM231600 35010KT P6SM BKN040
     FM240000 01004KT P6SM FEW040=



000
FTUS43 KGRR 230500
TAFJXN
TAF
KJXN 230525Z 2306/2406 22011G16KT P6SM FEW035 OVC150
     FM230800 31008KT P6SM BKN027
     FM231000 35013KT P6SM OVC006
     FM231200 35010KT 4SM BR BKN015
     FM231700 35010KT P6SM BKN040
     FM240000 01004KT P6SM FEW040=



000
FTUS43 KGRR 230500
TAFAZO
TAF
KAZO 230525Z 2306/2406 22010KT P6SM SCT050 OVC100
     FM230900 36012KT 4SM BR OVC009
     FM231300 35010KT 4SM BR BKN015
     FM231600 35010KT P6SM BKN040
     FM240000 01004KT P6SM FEW040=



000
FTUS43 KGRR 230500
TAFGRR
TAF
KGRR 230525Z 2306/2406 28009KT P6SM BKN035
     FM230700 36010KT 4SM BR BKN015
     FM231500 35012KT P6SM BKN040
     FM240000 01004KT P6SM FEW040=



000
FTUS43 KGRR 230500
TAFMKG
TAF
KMKG 230525Z 2306/2406 35010KT P6SM FEW080
     FM230800 36010KT 4SM HZ FEW040
     FM231400 35012G20KT P6SM SCT040
     FM240000 01004KT P6SM SKC=



000
FTUS43 KGRR 230400 AAA
TAFBTL
TAF AMD
KBTL 230433Z 2305/2324 30014G22KT P6SM VCTS SCT027 SCT050CB BKN060
     FM230600 33010G18KT P6SM FEW050 BKN120
     FM230800 36010KT 4SM HZ SCT120
     FM231400 35012G20KT P6SM BKN040=



000
FTUS43 KGRR 230400 AAA
TAFBTL
TAF AMD
KBTL 230433Z 2305/2324 30014G22KT P6SM VCTS SCT027 SCT050CB BKN060
     FM230600 33010G18KT P6SM FEW050 BKN120
     FM230800 36010KT 4SM HZ SCT120
     FM231400 35012G20KT P6SM BKN040=



000
FTUS43 KGRR 230400 AAA
TAFAZO
TAF AMD
KAZO 230424Z 2304/2324 25006KT P6SM TS SCT025 BKN050CB
      TEMPO 2304/2306 36020G30KT 2SM TSRA BR OVC025CB
     FM230600 33010G18KT P6SM FEW050 BKN120
     FM230800 36010KT 4SM HZ SCT120
     FM231400 35012G20KT P6SM BKN040=



000
FTUS43 KGRR 230400 AAA
TAFAZO
TAF AMD
KAZO 230424Z 2304/2324 25006KT P6SM TS SCT025 BKN050CB
      TEMPO 2304/2306 36020G30KT 2SM TSRA BR OVC025CB
     FM230600 33010G18KT P6SM FEW050 BKN120
     FM230800 36010KT 4SM HZ SCT120
     FM231400 35012G20KT P6SM BKN040=



000
FTUS43 KGRR 230300 AAA
TAFGRR
TAF AMD
KGRR 230306Z 2303/2324 27010KT P6SM VCTS SCT025CB BKN040
      TEMPO 2303/2304 2SM TSRA BR OVC025CB
     FM230400 33010G18KT P6SM FEW050 BKN120
     FM230800 36010KT 4SM HZ SCT120
     FM231400 35012G20KT P6SM BKN040=



000
FTUS43 KGRR 230100 AAA
TAFMKG
TAF AMD
KMKG 230112Z 2301/2324 21010KT P6SM VCTS SCT025CB BKN035
     FM230145 32020G40KT 2SM TSRA BR OVC025CB
     FM230230 33010G18KT P6SM FEW050 BKN120
     FM230800 36010KT 4SM HZ SCT120
     FM231400 35012G20KT P6SM SCT040=



000
FTUS43 KGRR 222300
TAFLAN
TAF
KLAN 222340Z 2300/2324 21012KT P6SM SCT040 BKN070
     FM230200 23010KT P6SM VCTS SCT025CB BKN040
      TEMPO 2304/2306 2SM TSRA BR OVC025CB
     FM230600 32010G18KT P6SM FEW050 BKN120
     FM230800 36008KT 4SM HZ SCT120
     FM231400 35010G18KT P6SM BKN040=



000
FTUS43 KGRR 222300
TAFAZO
TAF
KAZO 222340Z 2300/2324 22014KT P6SM SCT040 BKN070
     FM230200 23010KT P6SM VCTS SCT025CB BKN040
      TEMPO 2304/2306 2SM TSRA BR OVC025CB
     FM230600 33010G18KT P6SM FEW050 BKN120
     FM230800 36010KT 4SM HZ SCT120
     FM231400 35012G20KT P6SM BKN040=



000
FTUS43 KGRR 222300
TAFGRR
TAF
KGRR 222340Z 2300/2324 22012G20KT P6SM BKN040
     FM230100 22010KT P6SM VCTS SCT025CB BKN040
      TEMPO 2302/2304 2SM TSRA BR OVC025CB
     FM230400 33010G18KT P6SM FEW050 BKN120
     FM230800 36010KT 4SM HZ SCT120
     FM231400 35012G20KT P6SM BKN040=



000
FTUS43 KGRR 222300
TAFJXN
TAF
KJXN 222340Z 2300/2324 21012KT P6SM SCT040
     FM230300 23010KT P6SM VCTS SCT025CB BKN040
      TEMPO 2305/2307 2SM TSRA BR OVC025CB
     FM230700 32010G18KT P6SM FEW050 BKN120
     FM230900 36008KT 4SM HZ SCT120
     FM231400 35010G18KT P6SM BKN040=



000
FTUS43 KGRR 222300
TAFMKG
TAF
KMKG 222340Z 2300/2324 21012G20KT P6SM VCTS SCT025CB BKN035
      TEMPO 2301/2303 2SM TSRA BR OVC025CB
     FM230300 33010G18KT P6SM FEW050 BKN120
     FM230800 36010KT 4SM HZ SCT120
     FM231400 35012G20KT P6SM SCT040=



000
FTUS43 KGRR 222300
TAFBTL
TAF
KBTL 222340Z 2300/2324 22012KT P6SM SCT040 BKN070
     FM230200 23010KT P6SM VCTS SCT025CB BKN040
      TEMPO 2304/2306 2SM TSRA BR OVC025CB
     FM230600 33010G18KT P6SM FEW050 BKN120
     FM230800 36010KT 4SM HZ SCT120
     FM231400 35012G20KT P6SM BKN040=



    US Dept of Commerce
    National Oceanic and Atmospheric Administration
    National Weather Service
    1325 East West Highway
    Silver Spring, MD 20910
    Page Author: NWS Internet Services Team
Disclaimer
Information Quality
Credits
Glossary
Privacy Policy
Freedom of Information Act (FOIA)
About Us
Career Opportunities